sensor_id;sensor_type;location;lat;lon;timestamp;temperature;humidity
22813;DHT22;11573;51.334;3.244;2022-08-21T00:02:25;16.50;99.90
22813;DHT22;11573;51.334;3.244;2022-08-21T00:04:53;16.40;99.90
22813;DHT22;11573;51.334;3.244;2022-08-21T00:07:23;16.40;99.90
22813;DHT22;11573;51.334;3.244;2022-08-21T00:09:52;16.40;99.90
22813;DHT22;11573;51.334;3.244;2022-08-21T00:12:22;16.40;99.90
22813;DHT22;11573;51.334;3.244;2022-08-21T00:14:49;16.40;99.90
22813;DHT22;11573;51.334;3.244;2022-08-21T00:17:22;16.40;99.90
22813;DHT22;11573;51.334;3.244;2022-08-21T00:19:49;16.40;99.90
22813;DHT22;11573;51.334;3.244;2022-08-21T00:22:16;16.40;99.90
22813;DHT22;11573;51.334;3.244;2022-08-21T00:24:43;16.30;99.90
22813;DHT22;11573;51.334;3.244;2022-08-21T00:27:10;16.30;99.90
22813;DHT22;11573;51.334;3.244;2022-08-21T00:29:37;16.30;99.90
22813;DHT22;11573;51.334;3.244;2022-08-21T00:32:04;16.30;99.90
22813;DHT22;11573;51.334;3.244;2022-08-21T00:34:31;16.30;99.90
22813;DHT22;11573;51.334;3.244;2022-08-21T00:36:58;16.30;99.90
22813;DHT22;11573;51.334;3.244;2022-08-21T00:39:25;16.30;99.90
22813;DHT22;11573;51.334;3.244;2022-08-21T00:41:52;16.20;99.90
22813;DHT22;11573;51.334;3.244;2022-08-21T00:44:19;16.20;99.90
22813;DHT22;11573;51.334;3.244;2022-08-21T00:46:46;16.30;99.90
22813;DHT22;11573;51.334;3.244;2022-08-21T00:49:13;16.20;99.90
22813;DHT22;11573;51.334;3.244;2022-08-21T00:51:45;16.20;99.90
22813;DHT22;11573;51.334;3.244;2022-08-21T00:54:15;16.20;99.90
22813;DHT22;11573;51.334;3.244;2022-08-21T00:56:46;16.20;99.90
22813;DHT22;11573;51.334;3.244;2022-08-21T00:59:16;16.20;99.90
22813;DHT22;11573;51.334;3.244;2022-08-21T01:01:44;16.20;99.90
22813;DHT22;11573;51.334;3.244;2022-08-21T01:04:12;16.20;99.90
22813;DHT22;11573;51.334;3.244;2022-08-21T01:06:39;16.20;99.90
22813;DHT22;11573;51.334;3.244;2022-08-21T01:09:06;16.20;99.90
22813;DHT22;11573;51.334;3.244;2022-08-21T01:11:33;16.10;99.90
22813;DHT22;11573;51.334;3.244;2022-08-21T01:14:00;16.00;99.90
22813;DHT22;11573;51.334;3.244;2022-08-21T01:16:28;16.00;99.90
22813;DHT22;11573;51.334;3.244;2022-08-21T01:18:55;15.90;99.90
22813;DHT22;11573;51.334;3.244;2022-08-21T01:21:25;16.00;99.90
22813;DHT22;11573;51.334;3.244;2022-08-21T01:23:56;16.00;99.90
22813;DHT22;11573;51.334;3.244;2022-08-21T01:26:26;15.90;99.90
22813;DHT22;11573;51.334;3.244;2022-08-21T01:31:49;15.90;99.90
22813;DHT22;11573;51.334;3.244;2022-08-21T01:34:15;15.90;99.90
22813;DHT22;11573;51.334;3.244;2022-08-21T01:36:44;15.90;99.90
22813;DHT22;11573;51.334;3.244;2022-08-21T01:39:13;15.90;99.90
22813;DHT22;11573;51.334;3.244;2022-08-21T01:41:41;15.90;99.90
22813;DHT22;11573;51.334;3.244;2022-08-21T01:44:08;15.90;99.90
22813;DHT22;11573;51.334;3.244;2022-08-21T01:46:35;15.80;99.90
22813;DHT22;11573;51.334;3.244;2022-08-21T01:49:04;15.80;99.90
22813;DHT22;11573;51.334;3.244;2022-08-21T01:51:31;15.80;99.90
22813;DHT22;11573;51.334;3.244;2022-08-21T01:53:58;15.80;99.90
22813;DHT22;11573;51.334;3.244;2022-08-21T01:56:25;15.80;99.90
22813;DHT22;11573;51.334;3.244;2022-08-21T01:58:54;15.80;99.90
22813;DHT22;11573;51.334;3.244;2022-08-21T02:01:21;15.80;99.90
22813;DHT22;11573;51.334;3.244;2022-08-21T02:03:48;15.70;99.90
22813;DHT22;11573;51.334;3.244;2022-08-21T02:06:15;15.60;99.90
22813;DHT22;11573;51.334;3.244;2022-08-21T02:08:45;15.60;99.90
22813;DHT22;11573;51.334;3.244;2022-08-21T02:11:13;15.70;99.90
22813;DHT22;11573;51.334;3.244;2022-08-21T02:13:40;15.70;99.90
22813;DHT22;11573;51.334;3.244;2022-08-21T02:16:09;15.70;99.90
22813;DHT22;11573;51.334;3.244;2022-08-21T02:18:36;15.70;99.90
22813;DHT22;11573;51.334;3.244;2022-08-21T02:21:04;15.70;99.90
22813;DHT22;11573;51.334;3.244;2022-08-21T02:23:32;15.60;99.90
22813;DHT22;11573;51.334;3.244;2022-08-21T02:26:05;15.60;99.90
22813;DHT22;11573;51.334;3.244;2022-08-21T02:28:34;15.60;99.90
22813;DHT22;11573;51.334;3.244;2022-08-21T02:31:01;15.50;99.90
22813;DHT22;11573;51.334;3.244;2022-08-21T02:33:28;15.50;99.90
22813;DHT22;11573;51.334;3.244;2022-08-21T02:35:55;15.50;99.90
22813;DHT22;11573;51.334;3.244;2022-08-21T02:38:25;15.60;99.90
22813;DHT22;11573;51.334;3.244;2022-08-21T02:40:54;15.50;99.90
22813;DHT22;11573;51.334;3.244;2022-08-21T02:43:22;15.50;99.90
22813;DHT22;11573;51.334;3.244;2022-08-21T02:45:50;15.50;99.90
22813;DHT22;11573;51.334;3.244;2022-08-21T02:48:21;15.50;99.90
22813;DHT22;11573;51.334;3.244;2022-08-21T02:50:59;15.50;99.90
22813;DHT22;11573;51.334;3.244;2022-08-21T02:53:28;15.50;99.90
22813;DHT22;11573;51.334;3.244;2022-08-21T02:55:57;15.50;99.90
22813;DHT22;11573;51.334;3.244;2022-08-21T02:58:28;15.50;99.90
22813;DHT22;11573;51.334;3.244;2022-08-21T03:00:55;15.50;99.90
22813;DHT22;11573;51.334;3.244;2022-08-21T03:03:22;15.50;99.90
22813;DHT22;11573;51.334;3.244;2022-08-21T03:05:49;15.50;99.90
22813;DHT22;11573;51.334;3.244;2022-08-21T03:08:17;15.50;99.90
22813;DHT22;11573;51.334;3.244;2022-08-21T03:10:51;15.50;99.90
22813;DHT22;11573;51.334;3.244;2022-08-21T03:13:19;15.50;99.90
22813;DHT22;11573;51.334;3.244;2022-08-21T03:15:50;15.50;99.90
22813;DHT22;11573;51.334;3.244;2022-08-21T03:18:17;15.40;99.90
22813;DHT22;11573;51.334;3.244;2022-08-21T03:20:45;15.50;99.90
22813;DHT22;11573;51.334;3.244;2022-08-21T03:23:13;15.40;99.90
22813;DHT22;11573;51.334;3.244;2022-08-21T03:25:45;15.40;99.90
22813;DHT22;11573;51.334;3.244;2022-08-21T03:28:16;15.40;99.90
22813;DHT22;11573;51.334;3.244;2022-08-21T03:30:45;15.40;99.90
22813;DHT22;11573;51.334;3.244;2022-08-21T03:33:13;15.40;99.90
22813;DHT22;11573;51.334;3.244;2022-08-21T03:35:46;15.40;99.90
22813;DHT22;11573;51.334;3.244;2022-08-21T03:38:13;15.40;99.90
22813;DHT22;11573;51.334;3.244;2022-08-21T03:40:41;15.30;99.90
22813;DHT22;11573;51.334;3.244;2022-08-21T03:43:09;15.30;99.90
22813;DHT22;11573;51.334;3.244;2022-08-21T03:45:37;15.20;99.90
22813;DHT22;11573;51.334;3.244;2022-08-21T03:48:06;15.20;99.90
22813;DHT22;11573;51.334;3.244;2022-08-21T03:50:36;15.20;99.90
22813;DHT22;11573;51.334;3.244;2022-08-21T03:53:08;15.20;99.90
22813;DHT22;11573;51.334;3.244;2022-08-21T03:55:47;15.20;99.90
22813;DHT22;11573;51.334;3.244;2022-08-21T03:58:17;15.20;99.90
22813;DHT22;11573;51.334;3.244;2022-08-21T04:00:46;15.20;99.90
22813;DHT22;11573;51.334;3.244;2022-08-21T04:03:14;15.20;99.90
22813;DHT22;11573;51.334;3.244;2022-08-21T04:05:41;15.20;99.90
22813;DHT22;11573;51.334;3.244;2022-08-21T04:08:08;15.20;99.90
22813;DHT22;11573;51.334;3.244;2022-08-21T04:10:38;15.20;99.90
22813;DHT22;11573;51.334;3.244;2022-08-21T04:13:07;15.20;99.90
22813;DHT22;11573;51.334;3.244;2022-08-21T04:15:34;15.20;99.90
22813;DHT22;11573;51.334;3.244;2022-08-21T04:18:02;15.20;99.90
22813;DHT22;11573;51.334;3.244;2022-08-21T04:20:29;15.20;99.90
22813;DHT22;11573;51.334;3.244;2022-08-21T04:22:56;15.20;99.90
22813;DHT22;11573;51.334;3.244;2022-08-21T04:25:23;15.20;99.90
22813;DHT22;11573;51.334;3.244;2022-08-21T04:27:52;15.20;99.90
22813;DHT22;11573;51.334;3.244;2022-08-21T04:30:19;15.20;99.90
22813;DHT22;11573;51.334;3.244;2022-08-21T04:32:54;15.20;99.90
22813;DHT22;11573;51.334;3.244;2022-08-21T04:35:23;15.20;99.90
22813;DHT22;11573;51.334;3.244;2022-08-21T04:37:50;15.20;99.90
22813;DHT22;11573;51.334;3.244;2022-08-21T04:40:19;15.20;99.90
22813;DHT22;11573;51.334;3.244;2022-08-21T04:42:53;15.20;99.90
22813;DHT22;11573;51.334;3.244;2022-08-21T04:45:26;15.20;99.90
22813;DHT22;11573;51.334;3.244;2022-08-21T04:47:55;15.20;99.90
22813;DHT22;11573;51.334;3.244;2022-08-21T04:50:47;15.20;99.90
22813;DHT22;11573;51.334;3.244;2022-08-21T04:55:47;15.20;99.90
22813;DHT22;11573;51.334;3.244;2022-08-21T04:58:16;15.20;99.90
22813;DHT22;11573;51.334;3.244;2022-08-21T05:00:44;15.30;99.90
22813;DHT22;11573;51.334;3.244;2022-08-21T05:03:14;15.30;99.90
22813;DHT22;11573;51.334;3.244;2022-08-21T05:05:43;15.30;99.90
22813;DHT22;11573;51.334;3.244;2022-08-21T05:08:12;15.40;99.90
22813;DHT22;11573;51.334;3.244;2022-08-21T05:10:41;15.40;99.90
22813;DHT22;11573;51.334;3.244;2022-08-21T05:13:10;15.50;99.90
22813;DHT22;11573;51.334;3.244;2022-08-21T05:15:40;15.50;99.90
22813;DHT22;11573;51.334;3.244;2022-08-21T05:18:06;15.50;99.90
22813;DHT22;11573;51.334;3.244;2022-08-21T05:20:34;15.50;99.90
22813;DHT22;11573;51.334;3.244;2022-08-21T05:23:01;15.80;99.90
22813;DHT22;11573;51.334;3.244;2022-08-21T05:25:34;16.30;99.90
22813;DHT22;11573;51.334;3.244;2022-08-21T05:28:02;16.80;99.90
22813;DHT22;11573;51.334;3.244;2022-08-21T05:30:29;17.20;99.90
22813;DHT22;11573;51.334;3.244;2022-08-21T05:33:01;17.10;99.90
22813;DHT22;11573;51.334;3.244;2022-08-21T05:35:29;17.00;99.90
22813;DHT22;11573;51.334;3.244;2022-08-21T05:37:57;16.90;99.90
22813;DHT22;11573;51.334;3.244;2022-08-21T05:40:25;16.70;99.90
22813;DHT22;11573;51.334;3.244;2022-08-21T05:42:54;16.50;99.90
22813;DHT22;11573;51.334;3.244;2022-08-21T05:45:29;16.50;99.90
22813;DHT22;11573;51.334;3.244;2022-08-21T05:48:23;16.50;99.90
22813;DHT22;11573;51.334;3.244;2022-08-21T05:50:51;16.30;99.90
22813;DHT22;11573;51.334;3.244;2022-08-21T05:53:20;16.30;99.90
22813;DHT22;11573;51.334;3.244;2022-08-21T05:55:48;16.40;99.90
22813;DHT22;11573;51.334;3.244;2022-08-21T05:58:17;16.40;99.90
22813;DHT22;11573;51.334;3.244;2022-08-21T06:00:46;16.40;99.90
22813;DHT22;11573;51.334;3.244;2022-08-21T06:03:23;16.40;99.90
22813;DHT22;11573;51.334;3.244;2022-08-21T06:05:51;16.50;99.90
22813;DHT22;11573;51.334;3.244;2022-08-21T06:08:19;16.50;99.90
22813;DHT22;11573;51.334;3.244;2022-08-21T06:10:47;16.60;99.90
22813;DHT22;11573;51.334;3.244;2022-08-21T06:13:16;16.70;99.90
22813;DHT22;11573;51.334;3.244;2022-08-21T06:15:44;16.80;99.90
22813;DHT22;11573;51.334;3.244;2022-08-21T06:18:11;16.90;99.90
22813;DHT22;11573;51.334;3.244;2022-08-21T06:20:39;17.00;99.90
22813;DHT22;11573;51.334;3.244;2022-08-21T06:23:06;17.10;99.90
22813;DHT22;11573;51.334;3.244;2022-08-21T06:25:34;17.20;99.90
22813;DHT22;11573;51.334;3.244;2022-08-21T06:28:06;17.30;99.90
22813;DHT22;11573;51.334;3.244;2022-08-21T06:30:34;17.30;99.90
22813;DHT22;11573;51.334;3.244;2022-08-21T06:33:03;17.40;99.90
22813;DHT22;11573;51.334;3.244;2022-08-21T06:35:30;17.30;99.90
22813;DHT22;11573;51.334;3.244;2022-08-21T06:37:58;17.50;99.90
22813;DHT22;11573;51.334;3.244;2022-08-21T06:40:28;17.60;99.90
22813;DHT22;11573;51.334;3.244;2022-08-21T06:43:09;17.60;99.90
22813;DHT22;11573;51.334;3.244;2022-08-21T06:45:40;17.60;99.90
22813;DHT22;11573;51.334;3.244;2022-08-21T06:48:07;17.70;99.90
22813;DHT22;11573;51.334;3.244;2022-08-21T06:50:35;17.90;99.90
22813;DHT22;11573;51.334;3.244;2022-08-21T06:53:08;17.90;99.90
22813;DHT22;11573;51.334;3.244;2022-08-21T06:55:37;18.00;99.90
22813;DHT22;11573;51.334;3.244;2022-08-21T06:58:04;18.20;99.90
22813;DHT22;11573;51.334;3.244;2022-08-21T07:00:32;18.50;99.90
22813;DHT22;11573;51.334;3.244;2022-08-21T07:02:59;18.50;99.90
22813;DHT22;11573;51.334;3.244;2022-08-21T07:05:28;18.70;99.90
22813;DHT22;11573;51.334;3.244;2022-08-21T07:07:56;19.00;99.90
22813;DHT22;11573;51.334;3.244;2022-08-21T07:10:25;19.00;99.90
22813;DHT22;11573;51.334;3.244;2022-08-21T07:12:53;18.80;99.90
22813;DHT22;11573;51.334;3.244;2022-08-21T07:15:28;18.80;99.90
22813;DHT22;11573;51.334;3.244;2022-08-21T07:17:57;19.00;99.90
22813;DHT22;11573;51.334;3.244;2022-08-21T07:20:25;19.20;99.90
22813;DHT22;11573;51.334;3.244;2022-08-21T07:22:52;19.00;99.90
22813;DHT22;11573;51.334;3.244;2022-08-21T07:25:19;19.10;99.90
22813;DHT22;11573;51.334;3.244;2022-08-21T07:27:46;19.20;99.90
22813;DHT22;11573;51.334;3.244;2022-08-21T07:30:13;19.30;99.90
22813;DHT22;11573;51.334;3.244;2022-08-21T07:32:40;19.30;99.90
22813;DHT22;11573;51.334;3.244;2022-08-21T07:35:07;19.50;99.90
22813;DHT22;11573;51.334;3.244;2022-08-21T07:37:34;19.60;99.90
22813;DHT22;11573;51.334;3.244;2022-08-21T07:40:02;19.70;99.90
22813;DHT22;11573;51.334;3.244;2022-08-21T07:42:29;19.80;99.90
22813;DHT22;11573;51.334;3.244;2022-08-21T07:44:56;19.90;99.90
22813;DHT22;11573;51.334;3.244;2022-08-21T07:47:23;20.00;99.90
22813;DHT22;11573;51.334;3.244;2022-08-21T07:50:10;20.10;99.90
22813;DHT22;11573;51.334;3.244;2022-08-21T07:52:38;20.20;99.90
22813;DHT22;11573;51.334;3.244;2022-08-21T07:55:07;20.20;99.90
22813;DHT22;11573;51.334;3.244;2022-08-21T07:57:35;20.20;99.90
22813;DHT22;11573;51.334;3.244;2022-08-21T08:00:05;20.30;99.90
22813;DHT22;11573;51.334;3.244;2022-08-21T08:02:37;20.20;99.90
22813;DHT22;11573;51.334;3.244;2022-08-21T08:05:07;19.90;99.90
22813;DHT22;11573;51.334;3.244;2022-08-21T08:07:34;19.80;99.90
22813;DHT22;11573;51.334;3.244;2022-08-21T08:10:03;19.80;99.90
22813;DHT22;11573;51.334;3.244;2022-08-21T08:12:30;20.00;99.90
22813;DHT22;11573;51.334;3.244;2022-08-21T08:14:58;20.40;99.90
22813;DHT22;11573;51.334;3.244;2022-08-21T08:17:25;20.60;99.90
22813;DHT22;11573;51.334;3.244;2022-08-21T08:19:53;20.60;99.90
22813;DHT22;11573;51.334;3.244;2022-08-21T08:22:22;20.70;99.90
22813;DHT22;11573;51.334;3.244;2022-08-21T08:24:52;21.00;99.90
22813;DHT22;11573;51.334;3.244;2022-08-21T08:27:20;21.10;99.90
22813;DHT22;11573;51.334;3.244;2022-08-21T08:29:48;21.30;99.90
22813;DHT22;11573;51.334;3.244;2022-08-21T08:32:15;21.30;99.90
22813;DHT22;11573;51.334;3.244;2022-08-21T08:34:42;21.30;99.90
22813;DHT22;11573;51.334;3.244;2022-08-21T08:37:10;21.40;99.90
22813;DHT22;11573;51.334;3.244;2022-08-21T08:39:37;21.50;99.90
22813;DHT22;11573;51.334;3.244;2022-08-21T08:42:09;21.30;99.90
22813;DHT22;11573;51.334;3.244;2022-08-21T08:47:36;21.20;99.90
22813;DHT22;11573;51.334;3.244;2022-08-21T08:50:44;21.30;99.90
22813;DHT22;11573;51.334;3.244;2022-08-21T08:53:17;21.90;99.90
22813;DHT22;11573;51.334;3.244;2022-08-21T08:55:48;22.40;99.90
22813;DHT22;11573;51.334;3.244;2022-08-21T08:58:26;22.60;99.90
22813;DHT22;11573;51.334;3.244;2022-08-21T09:00:54;22.40;99.90
22813;DHT22;11573;51.334;3.244;2022-08-21T09:03:26;22.40;99.90
22813;DHT22;11573;51.334;3.244;2022-08-21T09:06:44;22.40;99.90
22813;DHT22;11573;51.334;3.244;2022-08-21T09:11:45;22.40;99.90
22813;DHT22;11573;51.334;3.244;2022-08-21T09:22:57;21.50;99.90
22813;DHT22;11573;51.334;3.244;2022-08-21T09:25:31;21.40;99.90
22813;DHT22;11573;51.334;3.244;2022-08-21T09:27:59;21.80;99.90
22813;DHT22;11573;51.334;3.244;2022-08-21T09:30:30;22.00;99.90
22813;DHT22;11573;51.334;3.244;2022-08-21T09:32:58;22.40;99.90
22813;DHT22;11573;51.334;3.244;2022-08-21T09:35:25;22.80;99.90
22813;DHT22;11573;51.334;3.244;2022-08-21T09:38:00;22.60;99.90
22813;DHT22;11573;51.334;3.244;2022-08-21T09:40:35;22.70;99.90
22813;DHT22;11573;51.334;3.244;2022-08-21T09:43:06;22.60;99.90
22813;DHT22;11573;51.334;3.244;2022-08-21T09:45:35;22.50;99.90
22813;DHT22;11573;51.334;3.244;2022-08-21T09:48:17;22.20;99.90
22813;DHT22;11573;51.334;3.244;2022-08-21T09:50:45;21.90;99.90
22813;DHT22;11573;51.334;3.244;2022-08-21T09:53:31;21.80;99.90
22813;DHT22;11573;51.334;3.244;2022-08-21T09:56:26;22.10;99.90
22813;DHT22;11573;51.334;3.244;2022-08-21T09:59:28;22.50;99.90
22813;DHT22;11573;51.334;3.244;2022-08-21T10:04:51;22.80;99.90
22813;DHT22;11573;51.334;3.244;2022-08-21T10:07:22;22.80;99.90
22813;DHT22;11573;51.334;3.244;2022-08-21T10:26:59;23.10;99.90
22813;DHT22;11573;51.334;3.244;2022-08-21T10:32:30;22.70;99.90
22813;DHT22;11573;51.334;3.244;2022-08-21T10:40:42;22.00;99.90
22813;DHT22;11573;51.334;3.244;2022-08-21T10:43:29;22.10;99.90
22813;DHT22;11573;51.334;3.244;2022-08-21T10:46:15;22.00;99.90
22813;DHT22;11573;51.334;3.244;2022-08-21T10:48:49;22.20;99.90
22813;DHT22;11573;51.334;3.244;2022-08-21T10:56:39;23.10;99.90
22813;DHT22;11573;51.334;3.244;2022-08-21T10:59:38;23.30;99.90
22813;DHT22;11573;51.334;3.244;2022-08-21T11:02:26;23.50;99.90
22813;DHT22;11573;51.334;3.244;2022-08-21T11:05:05;23.40;99.90
22813;DHT22;11573;51.334;3.244;2022-08-21T11:08:23;23.20;99.90
22813;DHT22;11573;51.334;3.244;2022-08-21T11:10:33;23.10;99.90
22813;DHT22;11573;51.334;3.244;2022-08-21T11:13:19;23.20;99.90
22813;DHT22;11573;51.334;3.244;2022-08-21T11:18:51;23.20;99.90
22813;DHT22;11573;51.334;3.244;2022-08-21T11:21:45;23.20;99.90
22813;DHT22;11573;51.334;3.244;2022-08-21T11:26:58;23.00;99.90
22813;DHT22;11573;51.334;3.244;2022-08-21T11:29:36;23.20;99.90
22813;DHT22;11573;51.334;3.244;2022-08-21T11:35:32;23.10;99.90
22813;DHT22;11573;51.334;3.244;2022-08-21T11:38:22;22.70;99.90
22813;DHT22;11573;51.334;3.244;2022-08-21T11:41:16;22.90;99.90
22813;DHT22;11573;51.334;3.244;2022-08-21T11:55:23;23.60;99.90
22813;DHT22;11573;51.334;3.244;2022-08-21T12:01:03;23.80;99.90
22813;DHT22;11573;51.334;3.244;2022-08-21T12:03:35;23.80;99.90
22813;DHT22;11573;51.334;3.244;2022-08-21T12:16:38;24.30;99.90
22813;DHT22;11573;51.334;3.244;2022-08-21T12:19:09;24.30;99.90
22813;DHT22;11573;51.334;3.244;2022-08-21T12:21:53;24.20;99.90
22813;DHT22;11573;51.334;3.244;2022-08-21T12:27:13;23.80;99.90
22813;DHT22;11573;51.334;3.244;2022-08-21T12:29:47;23.90;99.90
22813;DHT22;11573;51.334;3.244;2022-08-21T12:35:07;24.10;99.90
22813;DHT22;11573;51.334;3.244;2022-08-21T12:40:39;25.30;99.90
22813;DHT22;11573;51.334;3.244;2022-08-21T12:43:13;25.50;99.90
22813;DHT22;11573;51.334;3.244;2022-08-21T12:45:44;26.10;99.90
22813;DHT22;11573;51.334;3.244;2022-08-21T12:51:17;26.50;99.90
22813;DHT22;11573;51.334;3.244;2022-08-21T12:53:48;26.40;99.90
22813;DHT22;11573;51.334;3.244;2022-08-21T12:56:19;26.20;99.90
22813;DHT22;11573;51.334;3.244;2022-08-21T12:58:50;25.40;99.90
22813;DHT22;11573;51.334;3.244;2022-08-21T13:01:51;24.70;99.90
22813;DHT22;11573;51.334;3.244;2022-08-21T13:04:16;24.40;99.90
22813;DHT22;11573;51.334;3.244;2022-08-21T13:06:48;24.40;99.90
22813;DHT22;11573;51.334;3.244;2022-08-21T13:09:20;24.40;99.90
22813;DHT22;11573;51.334;3.244;2022-08-21T13:11:50;24.80;99.90
22813;DHT22;11573;51.334;3.244;2022-08-21T13:14:29;25.10;99.90
22813;DHT22;11573;51.334;3.244;2022-08-21T13:16:58;25.40;99.90
22813;DHT22;11573;51.334;3.244;2022-08-21T13:19:27;25.00;99.90
22813;DHT22;11573;51.334;3.244;2022-08-21T13:21:56;24.50;99.90
22813;DHT22;11573;51.334;3.244;2022-08-21T13:24:28;24.80;99.90
22813;DHT22;11573;51.334;3.244;2022-08-21T13:27:41;24.90;99.90
22813;DHT22;11573;51.334;3.244;2022-08-21T13:32:44;25.40;99.90
22813;DHT22;11573;51.334;3.244;2022-08-21T13:35:19;25.40;99.90
22813;DHT22;11573;51.334;3.244;2022-08-21T13:37:48;25.50;99.90
22813;DHT22;11573;51.334;3.244;2022-08-21T13:40:24;25.50;99.90
22813;DHT22;11573;51.334;3.244;2022-08-21T13:42:51;25.20;99.90
22813;DHT22;11573;51.334;3.244;2022-08-21T13:45:25;24.60;99.90
22813;DHT22;11573;51.334;3.244;2022-08-21T13:47:53;24.30;99.90
22813;DHT22;11573;51.334;3.244;2022-08-21T13:50:23;24.20;99.90
22813;DHT22;11573;51.334;3.244;2022-08-21T13:53:00;23.90;99.90
22813;DHT22;11573;51.334;3.244;2022-08-21T13:55:41;23.90;99.90
22813;DHT22;11573;51.334;3.244;2022-08-21T13:58:10;23.90;99.90
22813;DHT22;11573;51.334;3.244;2022-08-21T14:00:49;23.80;99.90
22813;DHT22;11573;51.334;3.244;2022-08-21T14:05:57;23.80;99.90
22813;DHT22;11573;51.334;3.244;2022-08-21T14:08:33;23.80;99.90
22813;DHT22;11573;51.334;3.244;2022-08-21T14:11:04;23.70;99.90
22813;DHT22;11573;51.334;3.244;2022-08-21T14:13:41;23.40;99.90
22813;DHT22;11573;51.334;3.244;2022-08-21T14:16:29;23.60;99.90
22813;DHT22;11573;51.334;3.244;2022-08-21T14:21:44;24.00;99.90
22813;DHT22;11573;51.334;3.244;2022-08-21T14:24:29;23.90;99.90
22813;DHT22;11573;51.334;3.244;2022-08-21T14:27:05;23.50;99.90
22813;DHT22;11573;51.334;3.244;2022-08-21T14:29:39;23.50;99.90
22813;DHT22;11573;51.334;3.244;2022-08-21T14:32:14;23.60;99.90
22813;DHT22;11573;51.334;3.244;2022-08-21T14:34:50;23.40;99.90
22813;DHT22;11573;51.334;3.244;2022-08-21T14:37:17;23.30;99.90
22813;DHT22;11573;51.334;3.244;2022-08-21T14:39:44;23.60;99.90
22813;DHT22;11573;51.334;3.244;2022-08-21T14:42:12;23.50;99.90
22813;DHT22;11573;51.334;3.244;2022-08-21T14:44:39;23.60;99.90
22813;DHT22;11573;51.334;3.244;2022-08-21T14:47:08;24.00;99.90
22813;DHT22;11573;51.334;3.244;2022-08-21T14:49:35;23.90;99.90
22813;DHT22;11573;51.334;3.244;2022-08-21T14:52:02;24.20;99.90
22813;DHT22;11573;51.334;3.244;2022-08-21T14:54:31;24.40;99.90
22813;DHT22;11573;51.334;3.244;2022-08-21T14:57:02;24.70;99.90
22813;DHT22;11573;51.334;3.244;2022-08-21T14:59:30;24.60;99.90
22813;DHT22;11573;51.334;3.244;2022-08-21T15:01:59;24.80;99.90
22813;DHT22;11573;51.334;3.244;2022-08-21T15:04:26;25.30;99.90
22813;DHT22;11573;51.334;3.244;2022-08-21T15:06:53;25.30;99.90
22813;DHT22;11573;51.334;3.244;2022-08-21T15:09:20;25.20;99.90
22813;DHT22;11573;51.334;3.244;2022-08-21T15:11:48;24.70;99.90
22813;DHT22;11573;51.334;3.244;2022-08-21T15:14:20;24.40;99.90
22813;DHT22;11573;51.334;3.244;2022-08-21T15:16:48;24.30;99.90
22813;DHT22;11573;51.334;3.244;2022-08-21T15:19:17;24.20;99.90
22813;DHT22;11573;51.334;3.244;2022-08-21T15:21:44;24.40;99.90
22813;DHT22;11573;51.334;3.244;2022-08-21T15:24:10;24.20;99.90
22813;DHT22;11573;51.334;3.244;2022-08-21T15:26:38;23.80;99.90
22813;DHT22;11573;51.334;3.244;2022-08-21T15:29:06;23.50;99.90
22813;DHT22;11573;51.334;3.244;2022-08-21T15:31:34;23.40;99.90
22813;DHT22;11573;51.334;3.244;2022-08-21T15:34:02;23.10;99.90
22813;DHT22;11573;51.334;3.244;2022-08-21T15:36:29;23.20;99.90
22813;DHT22;11573;51.334;3.244;2022-08-21T15:38:56;23.20;99.90
22813;DHT22;11573;51.334;3.244;2022-08-21T15:41:23;23.50;99.90
22813;DHT22;11573;51.334;3.244;2022-08-21T15:43:51;23.90;99.90
22813;DHT22;11573;51.334;3.244;2022-08-21T15:46:20;24.00;99.90
22813;DHT22;11573;51.334;3.244;2022-08-21T15:48:47;24.00;99.90
22813;DHT22;11573;51.334;3.244;2022-08-21T15:51:16;24.10;99.90
22813;DHT22;11573;51.334;3.244;2022-08-21T15:53:43;24.20;99.90
22813;DHT22;11573;51.334;3.244;2022-08-21T15:58:50;24.80;99.90
22813;DHT22;11573;51.334;3.244;2022-08-21T16:01:20;24.90;99.90
22813;DHT22;11573;51.334;3.244;2022-08-21T16:03:50;24.60;99.90
22813;DHT22;11573;51.334;3.244;2022-08-21T16:06:18;24.50;99.90
22813;DHT22;11573;51.334;3.244;2022-08-21T16:09:05;24.00;99.90
22813;DHT22;11573;51.334;3.244;2022-08-21T16:11:32;23.60;99.90
22813;DHT22;11573;51.334;3.244;2022-08-21T16:13:59;23.30;99.90
22813;DHT22;11573;51.334;3.244;2022-08-21T16:16:26;23.40;99.90
22813;DHT22;11573;51.334;3.244;2022-08-21T16:18:57;23.50;99.90
22813;DHT22;11573;51.334;3.244;2022-08-21T16:21:24;23.40;99.90
22813;DHT22;11573;51.334;3.244;2022-08-21T16:23:51;23.20;99.90
22813;DHT22;11573;51.334;3.244;2022-08-21T16:26:18;23.10;99.90
22813;DHT22;11573;51.334;3.244;2022-08-21T16:28:47;23.10;99.90
22813;DHT22;11573;51.334;3.244;2022-08-21T16:31:16;22.80;99.90
22813;DHT22;11573;51.334;3.244;2022-08-21T16:33:50;22.80;99.90
22813;DHT22;11573;51.334;3.244;2022-08-21T16:36:23;22.90;99.90
22813;DHT22;11573;51.334;3.244;2022-08-21T16:38:53;23.00;99.90
22813;DHT22;11573;51.334;3.244;2022-08-21T16:41:22;22.90;99.90
22813;DHT22;11573;51.334;3.244;2022-08-21T16:43:50;22.80;99.90
22813;DHT22;11573;51.334;3.244;2022-08-21T16:46:19;22.70;99.90
22813;DHT22;11573;51.334;3.244;2022-08-21T16:48:47;22.70;99.90
22813;DHT22;11573;51.334;3.244;2022-08-21T16:51:16;22.60;99.90
22813;DHT22;11573;51.334;3.244;2022-08-21T16:53:43;22.60;99.90
22813;DHT22;11573;51.334;3.244;2022-08-21T16:56:12;22.50;99.90
22813;DHT22;11573;51.334;3.244;2022-08-21T16:58:41;22.50;99.90
22813;DHT22;11573;51.334;3.244;2022-08-21T17:01:12;22.50;99.90
22813;DHT22;11573;51.334;3.244;2022-08-21T17:03:46;22.50;99.90
22813;DHT22;11573;51.334;3.244;2022-08-21T17:06:14;22.30;99.90
22813;DHT22;11573;51.334;3.244;2022-08-21T17:08:42;22.30;99.90
22813;DHT22;11573;51.334;3.244;2022-08-21T17:11:28;22.20;99.90
22813;DHT22;11573;51.334;3.244;2022-08-21T17:14:16;22.20;99.90
22813;DHT22;11573;51.334;3.244;2022-08-21T17:16:47;22.00;99.90
22813;DHT22;11573;51.334;3.244;2022-08-21T17:19:16;22.10;99.90
22813;DHT22;11573;51.334;3.244;2022-08-21T17:21:43;22.00;99.90
22813;DHT22;11573;51.334;3.244;2022-08-21T17:24:10;22.00;99.90
22813;DHT22;11573;51.334;3.244;2022-08-21T17:26:42;21.90;99.90
22813;DHT22;11573;51.334;3.244;2022-08-21T17:29:09;21.80;99.90
22813;DHT22;11573;51.334;3.244;2022-08-21T17:31:40;21.70;99.90
22813;DHT22;11573;51.334;3.244;2022-08-21T17:34:09;21.60;99.90
22813;DHT22;11573;51.334;3.244;2022-08-21T17:36:37;21.60;99.90
22813;DHT22;11573;51.334;3.244;2022-08-21T17:39:04;21.60;99.90
22813;DHT22;11573;51.334;3.244;2022-08-21T17:41:31;21.50;99.90
22813;DHT22;11573;51.334;3.244;2022-08-21T17:44:03;21.50;99.90